createdAt,value
2018-06-30T00:00:23.974Z,100080.00
2018-06-30T00:03:00.648Z,100073.00
2018-06-30T00:05:37.725Z,100081.00
2018-06-30T00:08:13.260Z,100077.00
2018-06-30T00:10:50.660Z,100076.00
2018-06-30T00:13:27.662Z,100083.00
2018-06-30T00:16:06.018Z,100080.00
2018-06-30T00:18:44.591Z,100077.00
2018-06-30T00:21:20.396Z,100087.00
2018-06-30T00:23:57.562Z,100080.00
2018-06-30T00:26:35.790Z,100079.00
2018-06-30T00:29:13.585Z,100080.00
2018-06-30T00:31:49.966Z,100083.00
2018-06-30T00:34:28.187Z,100086.00
2018-06-30T00:37:05.584Z,100082.00
2018-06-30T00:39:43.632Z,100088.00
2018-06-30T00:42:20.100Z,100086.00
2018-06-30T00:44:56.042Z,100082.00
2018-06-30T00:47:32.594Z,100081.00
2018-06-30T00:50:08.536Z,100079.00
2018-06-30T00:52:44.342Z,100086.00
2018-06-30T00:55:21.364Z,100090.00
2018-06-30T00:57:59.501Z,100083.00
2018-06-30T01:00:35.822Z,100089.00
2018-06-30T01:03:13.053Z,100089.00
2018-06-30T01:05:53.381Z,100088.00
2018-06-30T01:08:31.068Z,100093.00
2018-06-30T01:11:08.862Z,100098.00
2018-06-30T01:13:46.959Z,100099.00
2018-06-30T01:16:23.500Z,100101.00
2018-06-30T01:19:00.401Z,100097.00
2018-06-30T01:21:36.697Z,100101.00
2018-06-30T01:24:15.300Z,100106.00
2018-06-30T01:26:51.943Z,100106.00
2018-06-30T01:29:29.677Z,100111.00
2018-06-30T01:32:06.411Z,100116.00
2018-06-30T01:34:42.158Z,100115.00
2018-06-30T01:37:18.943Z,100119.00
2018-06-30T01:39:54.522Z,100115.00
2018-06-30T01:42:31.168Z,100123.00
2018-06-30T01:45:07.716Z,100123.00
2018-06-30T01:47:44.314Z,100125.00
2018-06-30T01:50:22.957Z,100123.00
2018-06-30T01:52:59.579Z,100126.00
2018-06-30T01:55:36.040Z,100129.00
2018-06-30T01:58:13.180Z,100126.00
2018-06-30T02:00:50.970Z,100119.00
2018-06-30T02:03:27.893Z,100125.00
2018-06-30T02:06:06.925Z,100123.00
2018-06-30T02:08:43.044Z,100125.00
2018-06-30T02:11:20.425Z,100127.00
2018-06-30T02:13:57.040Z,100129.00
2018-06-30T02:16:32.860Z,100134.00
2018-06-30T02:19:10.926Z,100141.00
2018-06-30T02:21:47.148Z,100147.00
2018-06-30T02:24:24.481Z,100147.00
2018-06-30T02:27:01.348Z,100152.00
2018-06-30T02:29:39.213Z,100149.00
2018-06-30T02:32:16.785Z,100150.00
2018-06-30T02:34:55.320Z,100156.00
2018-06-30T02:37:31.749Z,100151.00
2018-06-30T02:40:09.816Z,100155.00
2018-06-30T02:42:46.282Z,100152.00
2018-06-30T02:45:24.164Z,100160.00
2018-06-30T02:48:00.021Z,100167.00
2018-06-30T02:50:35.809Z,100167.00
2018-06-30T02:53:13.265Z,100177.00
2018-06-30T02:55:51.313Z,100185.00
2018-06-30T02:58:29.390Z,100184.00
2018-06-30T03:01:05.738Z,100188.00
2018-06-30T03:03:42.693Z,100191.00
2018-06-30T03:06:20.838Z,100190.00
2018-06-30T03:08:57.185Z,100195.00
2018-06-30T03:11:33.797Z,100196.00
2018-06-30T03:14:10.362Z,100197.00
2018-06-30T03:16:48.343Z,100201.00
2018-06-30T03:19:25.525Z,100199.00
2018-06-30T03:22:02.149Z,100207.00
2018-06-30T03:24:39.682Z,100205.00
2018-06-30T03:27:17.282Z,100212.00
2018-06-30T03:29:54.353Z,100222.00
2018-06-30T03:32:30.401Z,100220.00
2018-06-30T03:35:07.837Z,100220.00
2018-06-30T03:37:45.813Z,100224.00
2018-06-30T03:40:22.803Z,100227.00
2018-06-30T03:42:59.600Z,100228.00
2018-06-30T03:45:37.809Z,100228.00
2018-06-30T03:48:14.628Z,100233.00
2018-06-30T03:50:51.355Z,100231.00
2018-06-30T03:53:28.686Z,100237.00
2018-06-30T03:56:05.422Z,100238.00
2018-06-30T03:58:43.077Z,100240.00
2018-06-30T04:01:19.850Z,100244.00
2018-06-30T04:03:56.744Z,100247.00
2018-06-30T04:06:33.239Z,100255.00
2018-06-30T04:09:12.252Z,100258.00
2018-06-30T04:11:48.509Z,100249.00
2018-06-30T04:14:25.740Z,100264.00
2018-06-30T04:17:01.686Z,100261.00
2018-06-30T04:19:38.477Z,100271.00
2018-06-30T04:22:15.505Z,100269.00
2018-06-30T04:24:51.552Z,100274.00
2018-06-30T04:27:28.605Z,100281.00
2018-06-30T04:30:05.480Z,100287.00
2018-06-30T04:32:41.661Z,100289.00
2018-06-30T04:35:18.373Z,100297.00
2018-06-30T04:37:55.051Z,100290.00
2018-06-30T04:40:33.092Z,100292.00
2018-06-30T04:43:09.863Z,100290.00
2018-06-30T04:45:46.813Z,100296.00
2018-06-30T04:48:23.829Z,100299.00
2018-06-30T04:51:00.194Z,100303.00
2018-06-30T04:53:36.495Z,100305.00
2018-06-30T04:56:12.553Z,100308.00
2018-06-30T04:58:49.254Z,100316.00
2018-06-30T05:01:25.758Z,100317.00
2018-06-30T05:04:01.957Z,100312.00
2018-06-30T05:06:38.614Z,100318.00
2018-06-30T05:09:15.093Z,100320.00
2018-06-30T05:11:53.165Z,100317.00
2018-06-30T05:14:30.593Z,100322.00
2018-06-30T05:17:07.805Z,100325.00
2018-06-30T05:19:44.349Z,100327.00
2018-06-30T05:22:20.697Z,100332.00
2018-06-30T05:24:57.796Z,100331.00
2018-06-30T05:27:34.406Z,100329.00
2018-06-30T05:30:13.253Z,100327.00
2018-06-30T05:32:50.743Z,100331.00
2018-06-30T05:35:28.278Z,100330.00
2018-06-30T05:38:06.101Z,100329.00
2018-06-30T05:40:42.389Z,100333.00
2018-06-30T05:43:19.073Z,100334.00
2018-06-30T05:45:56.701Z,100332.00
2018-06-30T05:48:33.951Z,100334.00
2018-06-30T05:51:11.923Z,100336.00
2018-06-30T05:53:48.196Z,100344.00
2018-06-30T05:56:25.382Z,100346.00
2018-06-30T05:59:01.855Z,100338.00
2018-06-30T06:01:39.227Z,100341.00
2018-06-30T06:04:16.675Z,100336.00
2018-06-30T06:06:53.446Z,100333.00
2018-06-30T06:09:30.484Z,100334.00
2018-06-30T06:12:08.325Z,100331.00
2018-06-30T06:14:44.835Z,100341.00
2018-06-30T06:17:21.075Z,100336.00
2018-06-30T06:19:57.862Z,100338.00
2018-06-30T06:22:34.808Z,100335.00
2018-06-30T06:25:12.877Z,100339.00
2018-06-30T06:27:50.541Z,100342.00
2018-06-30T06:30:27.389Z,100344.00
2018-06-30T06:33:03.946Z,100344.00
2018-06-30T06:35:40.698Z,100342.00
2018-06-30T06:38:17.768Z,100350.00
2018-06-30T06:40:53.942Z,100356.00
2018-06-30T06:43:29.569Z,100347.00
2018-06-30T06:46:05.700Z,100351.00
2018-06-30T06:48:44.288Z,100347.00
2018-06-30T06:51:20.985Z,100358.00
2018-06-30T06:53:57.882Z,100353.00
2018-06-30T06:56:34.871Z,100354.00
2018-06-30T06:59:12.245Z,100354.00
2018-06-30T07:01:49.870Z,100358.00
2018-06-30T07:04:27.706Z,100356.00
2018-06-30T07:07:05.645Z,100355.00
2018-06-30T07:09:42.290Z,100347.00
2018-06-30T07:12:17.997Z,100356.00
2018-06-30T07:14:55.021Z,100346.00
2018-06-30T07:17:32.221Z,100358.00
2018-06-30T07:20:09.802Z,100356.00
2018-06-30T07:22:47.189Z,100353.00
2018-06-30T07:25:24.923Z,100361.00
2018-06-30T07:28:01.478Z,100361.00
2018-06-30T07:30:38.191Z,100369.00
2018-06-30T07:33:15.493Z,100359.00
2018-06-30T07:35:54.832Z,100360.00
2018-06-30T07:38:30.648Z,100355.00
2018-06-30T07:41:08.101Z,100355.00
2018-06-30T07:43:45.428Z,100353.00
2018-06-30T07:46:23.286Z,100352.00
2018-06-30T07:48:59.384Z,100350.00
2018-06-30T07:51:39.157Z,100353.00
2018-06-30T07:54:16.066Z,100357.00
2018-06-30T07:56:52.698Z,100352.00
2018-06-30T07:59:29.379Z,100352.00
2018-06-30T08:02:06.771Z,100354.00
2018-06-30T08:04:44.639Z,100352.00
2018-06-30T08:07:21.256Z,100358.00
2018-06-30T08:09:59.686Z,100362.00
2018-06-30T08:16:08.777Z,100355.00
2018-06-30T08:18:48.522Z,100356.00
2018-06-30T08:21:27.247Z,100372.00
2018-06-30T08:24:03.912Z,100371.00
2018-06-30T08:26:41.814Z,100372.00
2018-06-30T08:29:19.920Z,100370.00
2018-06-30T08:31:57.566Z,100387.00
2018-06-30T08:34:35.467Z,100384.00
2018-06-30T08:37:12.260Z,100382.00
2018-06-30T08:39:48.360Z,100381.00
2018-06-30T08:42:24.622Z,100387.00
2018-06-30T08:45:01.820Z,100384.00
2018-06-30T08:47:39.431Z,100386.00
2018-06-30T08:50:17.017Z,100386.00
2018-06-30T08:52:53.854Z,100382.00
2018-06-30T08:55:31.250Z,100377.00
2018-06-30T08:58:07.845Z,100377.00
2018-06-30T09:00:45.027Z,100375.00
2018-06-30T09:03:22.264Z,100370.00
2018-06-30T09:06:00.153Z,100378.00
2018-06-30T09:08:37.999Z,100380.00
2018-06-30T09:11:19.852Z,100373.00
2018-06-30T09:13:58.194Z,100375.00
2018-06-30T09:16:36.611Z,100364.00
2018-06-30T09:19:12.963Z,100364.00
2018-06-30T09:21:48.755Z,100374.00
2018-06-30T09:24:25.904Z,100359.00
2018-06-30T09:27:04.605Z,100365.00
2018-06-30T09:29:42.043Z,100379.00
2018-06-30T09:32:17.864Z,100371.00
2018-06-30T09:34:55.149Z,100377.00
2018-06-30T09:37:32.593Z,100380.00
2018-06-30T09:40:12.209Z,100379.00
2018-06-30T09:42:50.032Z,100377.00
2018-06-30T09:45:26.757Z,100378.00
2018-06-30T09:48:03.521Z,100380.00
2018-06-30T09:50:39.940Z,100377.00
2018-06-30T09:53:18.806Z,100368.00
2018-06-30T09:55:56.303Z,100379.00
2018-06-30T09:58:33.534Z,100376.00
2018-06-30T10:01:11.729Z,100380.00
2018-06-30T10:03:48.808Z,100382.00
2018-06-30T10:06:26.008Z,100379.00
2018-06-30T10:09:05.977Z,100370.00
2018-06-30T10:11:43.360Z,100374.00
2018-06-30T10:14:19.965Z,100368.00
2018-06-30T10:16:57.945Z,100371.00
2018-06-30T10:19:36.388Z,100376.00
2018-06-30T10:22:13.914Z,100371.00
2018-06-30T10:24:50.421Z,100370.00
2018-06-30T10:27:27.992Z,100366.00
2018-06-30T10:30:07.085Z,100370.00
2018-06-30T10:32:44.059Z,100365.00
2018-06-30T10:35:21.828Z,100371.00
2018-06-30T10:37:59.038Z,100370.00
2018-06-30T10:40:34.912Z,100366.00
2018-06-30T10:43:13.060Z,100367.00
2018-06-30T10:45:49.684Z,100367.00
2018-06-30T10:48:26.898Z,100364.00
2018-06-30T10:51:03.877Z,100370.00
2018-06-30T10:53:40.678Z,100366.00
2018-06-30T10:56:18.012Z,100372.00
2018-06-30T10:58:56.526Z,100368.00
2018-06-30T11:01:34.892Z,100366.00
2018-06-30T11:04:14.720Z,100360.00
2018-06-30T11:06:51.760Z,100363.00
2018-06-30T11:09:29.010Z,100369.00
2018-06-30T11:12:06.190Z,100365.00
2018-06-30T11:14:43.529Z,100363.00
2018-06-30T11:17:20.879Z,100359.00
2018-06-30T11:19:56.872Z,100359.00
2018-06-30T11:22:33.190Z,100358.00
2018-06-30T11:25:11.178Z,100341.00
2018-06-30T11:27:50.390Z,100339.00
2018-06-30T11:30:27.096Z,100357.00
2018-06-30T11:33:04.157Z,100353.00
2018-06-30T11:35:44.495Z,100353.00
2018-06-30T11:38:21.969Z,100349.00
2018-06-30T11:40:59.286Z,100354.00
2018-06-30T11:43:36.595Z,100354.00
2018-06-30T11:46:14.583Z,100350.00
2018-06-30T11:48:51.547Z,100344.00
2018-06-30T11:51:28.737Z,100327.00
2018-06-30T11:54:05.842Z,100329.00
2018-06-30T11:56:44.108Z,100321.00
2018-06-30T11:59:22.145Z,100318.00
2018-06-30T12:02:01.389Z,100317.00
2018-06-30T12:04:39.659Z,100328.00
2018-06-30T12:07:15.987Z,100328.00
2018-06-30T12:09:54.113Z,100331.00
2018-06-30T12:12:32.541Z,100323.00
2018-06-30T12:15:11.221Z,100334.00
2018-06-30T12:17:50.076Z,100328.00
2018-06-30T12:20:28.494Z,100326.00
2018-06-30T12:23:08.977Z,100321.00
2018-06-30T12:25:46.174Z,100313.00
2018-06-30T12:28:23.762Z,100318.00
2018-06-30T12:31:01.258Z,100299.00
2018-06-30T12:33:39.327Z,100321.00
2018-06-30T12:36:16.751Z,100326.00
2018-06-30T12:38:54.840Z,100329.00
2018-06-30T12:41:32.267Z,100318.00
2018-06-30T12:44:10.131Z,100329.00
2018-06-30T12:46:47.197Z,100325.00
2018-06-30T12:49:24.418Z,100326.00
2018-06-30T12:52:00.313Z,100318.00
2018-06-30T12:54:39.013Z,100310.00
2018-06-30T12:57:15.318Z,100319.00
2018-06-30T12:59:54.272Z,100313.00
2018-06-30T13:02:32.079Z,100313.00
2018-06-30T13:05:09.310Z,100324.00
2018-06-30T13:07:48.038Z,100321.00
2018-06-30T13:10:26.474Z,100330.00
2018-06-30T13:13:03.198Z,100319.00
2018-06-30T13:15:41.276Z,100323.00
2018-06-30T13:18:19.149Z,100315.00
2018-06-30T13:20:56.952Z,100296.00
2018-06-30T13:23:34.225Z,100305.00
2018-06-30T13:26:12.545Z,100318.00
2018-06-30T13:28:49.933Z,100317.00
2018-06-30T13:31:28.136Z,100302.00
2018-06-30T13:34:04.813Z,100322.00
2018-06-30T13:36:41.869Z,100325.00
2018-06-30T13:39:20.314Z,100318.00
2018-06-30T13:41:57.846Z,100319.00
2018-06-30T13:44:35.880Z,100315.00
2018-06-30T13:47:13.304Z,100313.00
2018-06-30T13:49:49.975Z,100311.00
2018-06-30T13:52:28.643Z,100312.00
2018-06-30T13:55:06.557Z,100312.00
2018-06-30T13:57:44.615Z,100298.00
2018-06-30T14:00:21.692Z,100312.00
2018-06-30T14:02:58.460Z,100318.00
2018-06-30T14:05:35.872Z,100300.00
2018-06-30T14:08:13.756Z,100304.00
2018-06-30T14:10:51.780Z,100301.00
2018-06-30T14:13:27.714Z,100313.00
2018-06-30T14:16:06.322Z,100316.00
2018-06-30T14:18:43.111Z,100313.00
2018-06-30T14:21:21.815Z,100308.00
2018-06-30T14:23:58.933Z,100309.00
2018-06-30T14:26:36.284Z,100306.00
2018-06-30T14:29:13.412Z,100306.00
2018-06-30T14:31:49.814Z,100310.00
2018-06-30T14:34:26.881Z,100299.00
2018-06-30T14:37:04.629Z,100303.00
2018-06-30T14:39:43.281Z,100306.00
2018-06-30T14:42:19.921Z,100300.00
2018-06-30T14:44:57.609Z,100321.00
2018-06-30T14:47:35.348Z,100309.00
2018-06-30T14:50:12.077Z,100305.00
2018-06-30T14:52:48.119Z,100310.00
2018-06-30T14:55:25.432Z,100299.00
2018-06-30T14:58:03.155Z,100303.00
2018-06-30T15:00:40.276Z,100301.00
2018-06-30T15:03:18.240Z,100294.00
2018-06-30T15:05:55.937Z,100289.00
2018-06-30T15:08:32.242Z,100287.00
2018-06-30T15:11:09.723Z,100282.00
2018-06-30T15:13:47.340Z,100287.00
2018-06-30T15:16:23.682Z,100285.00
2018-06-30T15:19:01.968Z,100287.00
2018-06-30T15:21:38.389Z,100288.00
2018-06-30T15:24:15.204Z,100290.00
2018-06-30T15:26:52.487Z,100283.00
2018-06-30T15:29:28.928Z,100289.00
2018-06-30T15:32:06.336Z,100285.00
2018-06-30T15:34:43.401Z,100278.00
2018-06-30T15:37:20.073Z,100284.00
2018-06-30T15:39:57.582Z,100289.00
2018-06-30T15:42:35.270Z,100292.00
2018-06-30T15:45:13.249Z,100295.00
2018-06-30T15:47:50.532Z,100294.00
2018-06-30T15:50:28.002Z,100292.00
2018-06-30T15:53:03.858Z,100289.00
2018-06-30T15:55:42.036Z,100296.00
2018-06-30T15:58:19.820Z,100297.00
2018-06-30T16:00:56.849Z,100293.00
2018-06-30T16:03:34.472Z,100293.00
2018-06-30T16:06:10.738Z,100304.00
2018-06-30T16:08:47.736Z,100294.00
2018-06-30T16:11:25.329Z,100294.00
2018-06-30T16:14:03.950Z,100295.00
2018-06-30T16:16:40.331Z,100291.00
2018-06-30T16:19:16.755Z,100293.00
2018-06-30T16:21:54.238Z,100297.00
2018-06-30T16:24:31.336Z,100299.00
2018-06-30T16:27:08.347Z,100302.00
2018-06-30T16:29:45.384Z,100302.00
2018-06-30T16:32:24.307Z,100306.00
2018-06-30T16:35:02.135Z,100306.00
2018-06-30T16:37:37.875Z,100301.00
2018-06-30T16:40:15.228Z,100300.00
2018-06-30T16:42:51.445Z,100293.00
2018-06-30T16:45:30.065Z,100288.00
2018-06-30T16:48:08.236Z,100286.00
2018-06-30T16:50:45.526Z,100291.00
2018-06-30T16:53:23.578Z,100285.00
2018-06-30T16:56:01.762Z,100293.00
2018-06-30T16:58:38.777Z,100292.00
2018-06-30T17:01:16.220Z,100298.00
2018-06-30T17:03:52.029Z,100300.00
2018-06-30T17:06:30.101Z,100306.00
2018-06-30T17:09:11.893Z,100297.00
2018-06-30T17:11:49.533Z,100295.00
2018-06-30T17:14:25.964Z,100295.00
2018-06-30T17:17:02.201Z,100298.00
2018-06-30T17:19:38.988Z,100297.00
2018-06-30T17:22:15.946Z,100296.00
2018-06-30T17:24:53.208Z,100292.00
2018-06-30T17:27:29.644Z,100291.00
2018-06-30T17:30:07.805Z,100288.00
2018-06-30T17:32:45.193Z,100298.00
2018-06-30T17:35:22.936Z,100300.00
2018-06-30T17:38:00.408Z,100294.00
2018-06-30T17:40:37.278Z,100295.00
2018-06-30T17:43:14.761Z,100295.00
2018-06-30T17:45:51.156Z,100293.00
2018-06-30T17:48:27.621Z,100302.00
2018-06-30T17:51:04.578Z,100301.00
2018-06-30T17:53:41.851Z,100302.00
2018-06-30T17:56:20.008Z,100302.00
2018-06-30T17:58:58.955Z,100304.00
2018-06-30T18:01:36.347Z,100303.00
2018-06-30T18:04:12.884Z,100301.00
2018-06-30T18:06:51.245Z,100306.00
2018-06-30T18:09:28.419Z,100304.00
2018-06-30T18:12:05.590Z,100303.00
2018-06-30T18:14:42.713Z,100306.00
2018-06-30T18:17:21.316Z,100315.00
2018-06-30T18:19:59.717Z,100306.00
2018-06-30T18:22:35.765Z,100311.00
2018-06-30T18:25:13.298Z,100305.00
2018-06-30T18:27:49.397Z,100307.00
2018-06-30T18:30:26.418Z,100316.00
2018-06-30T18:33:03.077Z,100309.00
2018-06-30T18:35:40.932Z,100312.00
2018-06-30T18:38:19.525Z,100313.00
2018-06-30T18:40:55.705Z,100311.00
2018-06-30T18:43:31.574Z,100313.00
2018-06-30T18:46:07.680Z,100311.00
2018-06-30T18:48:44.075Z,100311.00
2018-06-30T18:51:20.912Z,100313.00
2018-06-30T18:53:58.037Z,100310.00
2018-06-30T18:56:34.579Z,100317.00
2018-06-30T18:59:11.204Z,100316.00
2018-06-30T19:01:48.324Z,100320.00
2018-06-30T19:04:26.285Z,100320.00
2018-06-30T19:07:03.067Z,100326.00
2018-06-30T19:09:39.235Z,100326.00
2018-06-30T19:12:17.035Z,100324.00
2018-06-30T19:14:53.874Z,100327.00
2018-06-30T19:17:31.789Z,100333.00
2018-06-30T19:20:08.479Z,100335.00
2018-06-30T19:22:44.710Z,100339.00
2018-06-30T19:25:21.049Z,100342.00
2018-06-30T19:27:58.307Z,100344.00
2018-06-30T19:30:35.944Z,100347.00
2018-06-30T19:33:12.857Z,100343.00
2018-06-30T19:35:49.316Z,100346.00
2018-06-30T19:38:25.617Z,100343.00
2018-06-30T19:41:02.259Z,100351.00
2018-06-30T19:43:40.066Z,100348.00
2018-06-30T19:46:16.663Z,100352.00
2018-06-30T19:48:53.998Z,100358.00
2018-06-30T19:51:30.733Z,100351.00
2018-06-30T19:54:08.317Z,100356.00
2018-06-30T19:56:44.656Z,100356.00
2018-06-30T19:59:22.829Z,100358.00
2018-06-30T20:02:00.377Z,100356.00
2018-06-30T20:04:39.116Z,100358.00
2018-06-30T20:07:15.698Z,100361.00
2018-06-30T20:09:53.708Z,100361.00
2018-06-30T20:12:33.137Z,100359.00
2018-06-30T20:15:10.389Z,100368.00
2018-06-30T20:17:46.568Z,100365.00
2018-06-30T20:20:24.280Z,100363.00
2018-06-30T20:23:02.901Z,100369.00
2018-06-30T20:25:40.133Z,100369.00
2018-06-30T20:28:18.496Z,100366.00
2018-06-30T20:30:56.187Z,100367.00
2018-06-30T20:33:36.266Z,100379.00
2018-06-30T20:36:14.313Z,100377.00
2018-06-30T20:38:57.266Z,100379.00
2018-06-30T20:41:33.996Z,100381.00
2018-06-30T20:44:11.123Z,100382.00
2018-06-30T20:46:48.856Z,100382.00
2018-06-30T20:52:22.962Z,100386.00
2018-06-30T20:55:01.086Z,100387.00
2018-06-30T20:57:39.380Z,100390.00
2018-06-30T21:00:15.894Z,100389.00
2018-06-30T21:02:53.827Z,100391.00
2018-06-30T21:05:30.865Z,100390.00
2018-06-30T21:08:06.558Z,100391.00
2018-06-30T21:10:43.224Z,100397.00
2018-06-30T21:13:20.505Z,100398.00
2018-06-30T21:15:58.506Z,100396.00
2018-06-30T21:18:36.482Z,100402.00
2018-06-30T21:21:14.594Z,100397.00
2018-06-30T21:23:51.236Z,100400.00
2018-06-30T21:26:28.750Z,100402.00
2018-06-30T21:29:06.367Z,100406.00
2018-06-30T21:31:42.815Z,100406.00
2018-06-30T21:34:19.161Z,100398.00
2018-06-30T21:36:56.264Z,100406.00
2018-06-30T21:39:32.770Z,100397.00
2018-06-30T21:42:09.124Z,100400.00
2018-06-30T21:44:48.847Z,100405.00
2018-06-30T21:47:25.846Z,100407.00
2018-06-30T21:50:04.382Z,100413.00
2018-06-30T21:52:41.346Z,100409.00
2018-06-30T21:55:18.965Z,100411.00
2018-06-30T21:57:56.534Z,100410.00
2018-06-30T22:00:51.773Z,100416.00
2018-06-30T22:03:28.936Z,100415.00
2018-06-30T22:06:07.409Z,100421.00
2018-06-30T22:08:43.098Z,100419.00
2018-06-30T22:11:19.599Z,100421.00
2018-06-30T22:13:55.877Z,100425.00
2018-06-30T22:16:33.462Z,100425.00
2018-06-30T22:19:11.501Z,100427.00
2018-06-30T22:21:49.372Z,100422.00
2018-06-30T22:24:26.783Z,100427.00
2018-06-30T22:27:02.877Z,100434.00
2018-06-30T22:29:40.772Z,100438.00
2018-06-30T22:32:17.643Z,100437.00
2018-06-30T22:34:55.602Z,100435.00
2018-06-30T22:37:32.478Z,100438.00
2018-06-30T22:40:16.463Z,100443.00
2018-06-30T22:42:53.461Z,100442.00
2018-06-30T22:45:31.698Z,100434.00
2018-06-30T22:48:08.810Z,100438.00
2018-06-30T22:50:47.488Z,100433.00
2018-06-30T22:53:25.720Z,100440.00
2018-06-30T22:56:03.026Z,100439.00
2018-06-30T22:58:39.890Z,100435.00
2018-06-30T23:01:16.462Z,100446.00
2018-06-30T23:03:53.073Z,100437.00
2018-06-30T23:06:29.353Z,100441.00
2018-06-30T23:09:09.376Z,100440.00
2018-06-30T23:11:45.598Z,100445.00
2018-06-30T23:14:22.034Z,100446.00
2018-06-30T23:17:00.494Z,100451.00
2018-06-30T23:19:37.097Z,100446.00
2018-06-30T23:22:17.454Z,100451.00
2018-06-30T23:24:53.816Z,100449.00
2018-06-30T23:27:30.152Z,100451.00
2018-06-30T23:30:08.093Z,100455.00
2018-06-30T23:32:44.145Z,100446.00
2018-06-30T23:35:21.407Z,100450.00
2018-06-30T23:37:59.419Z,100452.00
2018-06-30T23:40:35.329Z,100459.00
2018-06-30T23:43:11.184Z,100454.00
2018-06-30T23:45:48.181Z,100455.00
2018-06-30T23:48:25.975Z,100458.00
2018-06-30T23:51:01.996Z,100459.00
2018-06-30T23:53:39.316Z,100458.00
2018-06-30T23:56:17.320Z,100459.00
2018-06-30T23:58:54.027Z,100462.00
